Terminal Aerodrome Forecast
Issued by NWS Missoula, MT

Home | Current Version | Previous Version | Text Only | Print | Product List | Glossary On
Versions: 1 2 3 4 5 6 7 8 9 10 11 12 13 14
000
FTUS45 KMSO 042320
TAFBTM
TAF
KBTM 042320Z 0500/0524 01009G16KT P6SM VCSH BKN090
     FM050030 29012G20KT P6SM -SHRA VCTS BKN060CB BKN100
     FM050200 VRB05KT P6SM SCT090=

USA.gov is the U.S. government's official web portal to all federal, state and local government web resources and services.